• Join FlightAware (Why Join?)
  • Login
  • US Flag 
08:48PM EDT


 

Airport Tracker/Info


-or-


 

Live Flight TrackerFlight Track Log ✈ CEY502 ✈ 12-Jul-2013 ✈ KSFB - MKJS / MBJ

Flight Track Log - Related Links

Times and Time Zones

All times are in EDT time to prevent confusion due to time zone crossing. See the CEY502 flight status page for this flight to view local times or setup timezone preferences in your user account.

Time Position Orientation Groundspeed Altitude Reporting Facility
EDT Latitude Longitude Course Direction KTS MPH feet Rate Location/Type
06:55PM 28.7833 -81.2667 270° West 136 157 800  Level Orlando TRACON
06:56PM 28.7833 -81.3333 270° West 205 236 2,200 900 Climbing Orlando TRACON
06:57PM 28.8167 -81.3833 307° West 231 266 2,700 600 Climbing Orlando TRACON
06:58PM 28.8333 -81.3333 69° East 232 267 3,400 1,500 Climbing Orlando TRACON
06:59PM 28.8333 -81.2667 90° East 234 269 5,600 2,220 Climbing Orlando TRACON
07:00PM 28.8333 -81.1833 90° East 229 264 8,100 1,920 Climbing Orlando TRACON
07:02PM 28.7494 -81.0942 137° Southeast 242 278 11,500 1,680 Climbing Miami Center
07:03PM 28.6944 -81.0494 144° Southeast 247 284 13,200 1,680 Climbing Miami Center
07:04PM 28.6303 -81.0331 167° South 242 278 14,900 1,440 Climbing Miami Center
07:05PM 28.5617 -81.0208 171° South 242 278 16,100 540 Climbing Miami Center
07:06PM 28.4808 -81.0061 171° South 268 308 16,000  Descending Miami Center
07:07PM 28.3933 -80.9933 173° South 297 342 16,100 720 Climbing Miami Center
07:08PM 28.3061 -80.9808 173° South 306 352 17,500 1,200 Climbing Miami Center
07:09PM 28.2211 -80.9683 173° South 306 352 18,500 960 Climbing Miami Center
07:10PM 28.1442 -80.9583 173° South 306 352 19,500 900 Climbing Miami Center
07:11PM 28.0672 -80.9486 174° South 295 339 20,300 900 Climbing Miami Center
07:12PM 27.9994 -80.9039 150° Southeast 290 334 21,300 780 Climbing Miami Center
07:13PM 27.9450 -80.8336 131° Southeast 271 312 21,900 660 Climbing Miami Center
07:14PM 27.8928 -80.7636 130° Southeast 284 327 22,700 480 Climbing Miami Center
07:15PM 27.8383 -80.6961 132° Southeast 284 327 22,900 60 Climbing Miami Center
07:16PM 27.7797 -80.6214 132° Southeast 301 346 22,900 720 Level Miami Center
07:17PM 27.7231 -80.5492 132° Southeast 307 353 24,400 1,200 Climbing Miami Center
07:18PM 27.6725 -80.4819 130° Southeast 295 339 25,300 600 Climbing Miami Center
07:19PM 27.6003 -80.4467 157° South 281 323 25,600 420 Climbing Miami Center
07:20PM 27.5258 -80.4211 163° South 278 320 26,200 600 Climbing Miami Center
07:21PM 27.4494 -80.3931 162° South 283 326 26,800 660 Climbing Miami Center
07:22PM 27.3728 -80.3650 162° South 283 326 27,600 600 Climbing Miami Center
07:23PM 27.2964 -80.3344 160° South 283 326 28,000 360 Climbing Miami Center
07:24PM 27.2197 -80.3089 163° South 283 326 28,400 360 Climbing Miami Center
07:25PM 27.1431 -80.2808 162° South 283 326 28,800 360 Climbing Miami Center
07:26PM 27.0664 -80.2506 161° South 288 331 29,200 420 Climbing Miami Center
07:27PM 27.0031 -80.1928 141° Southeast 288 331 29,700 420 Climbing Miami Center
07:28PM 26.9781 -80.1036 107° East 276 318 30,100 120 Climbing Miami Center
07:29PM 26.9717 -80.0056 94° East 288 331 30,000 -120 Descending Miami Center
07:30PM 26.8997 -79.9522 147° Southeast 288 331 29,900 -60 Descending Miami Center
07:31PM 26.8192 -79.9200 160° South 321 369 29,900  Level Miami Center
07:32PM 26.7297 -79.8989 168° South 333 383 30,000 360 Climbing Miami Center
07:33PM 26.6322 -79.8686 164° South 335 386 30,700 540 Climbing Miami Center
07:34PM 26.5553 -79.8458 165° South 324 373 31,100 300 Climbing Miami Center
07:35PM 26.4642 -79.8156 163° South 314 361 31,400 240 Climbing Miami Center
07:36PM 26.3850 -79.7928 166° South 314 361 31,600 300 Climbing Miami Center
07:37PM 26.2939 -79.7603 162° South 314 361 32,000 360 Climbing Miami Center
07:38PM 26.2086 -79.7353 165° South 314 361 32,400 300 Climbing Miami Center
07:39PM 26.1256 -79.7100 165° South 314 361 32,700 120 Climbing Miami Center
07:41PM 25.9575 -79.6575 164° South 314 361 32,900 60 Climbing Miami Center
07:42PM 25.8703 -79.6322 165° South 319 367 32,900  Level Miami Center
07:43PM 25.7808 -79.6072 166° South 319 367 32,900  Level Miami Center
07:44PM 25.6850 -79.5911 171° South 332 382 32,900  Level Miami Center
07:45PM 25.5978 -79.5708 168° South 332 382 32,900  Level Miami Center
07:46PM 25.5081 -79.5503 168° South 337 388 32,900  Level Miami Center
07:47PM 25.4144 -79.5322 170° South 332 382 32,900  Level Miami Center
07:48PM 25.3231 -79.5119 169° South 332 382 32,900  Level Miami Center
07:49PM 25.2314 -79.4892 167° South 337 388 32,900  Level Miami Center
07:50PM 25.1378 -79.4733 171° South 337 388 32,900  Level Miami Center
07:51PM 25.0483 -79.4508 167° South 337 388 32,900  Level Miami Center
07:52PM 24.9567 -79.4328 170° South 332 382 32,900  Level Miami Center
07:53PM 24.8650 -79.4125 169° South 332 382 32,900  Level Miami Center
07:54PM 24.7756 -79.3947 170° South 332 382 32,900  Level Miami Center
07:55PM 24.6839 -79.3744 169° South 332 382 32,900  Level Miami Center
07:56PM 24.5922 -79.3567 170° South 332 382 32,900  Level Miami Center
07:57PM 24.4964 -79.3389 170° South 337 388 32,900  Level Miami Center
07:58PM 24.4069 -79.3164 167° South 337 388 32,900  Level Miami Center
07:59PM 24.3133 -79.2986 170° South 337 388 32,900  Level Miami Center
08:00PM 24.2217 -79.2786 169° South 337 388 32,900  Level Miami Center
08:01PM 24.1278 -79.2586 169° South 337 388 32,900  Level Miami Center
08:02PM 24.0364 -79.2386 169° South 337 388 32,900  Level Miami Center
08:03PM 23.9422 -79.2347 178° South 337 388 32,900  Level Miami Center
08:05PM 23.8038 -79.2033 168° South  Level FlightAware Approximate
08:12PM 23.2336 -79.0746 168° South  Level FlightAware Approximate
08:13PM 23.1521 -79.0563 168° South  Level FlightAware Approximate
08:14PM 23.0707 -79.0381 168° South  Level FlightAware Approximate
08:15PM 22.9892 -79.0198 168° South  Level FlightAware Approximate
08:16PM 22.9077 -79.0016 168° South  Level FlightAware Approximate
08:17PM 22.8263 -78.9834 168° South  Level FlightAware Approximate
08:18PM 22.7448 -78.9652 168° South  Level FlightAware Approximate
08:19PM 22.6633 -78.9470 168° South  Level FlightAware Approximate
08:20PM 22.5818 -78.9289 168° South  Level FlightAware Approximate
08:21PM 22.5004 -78.9108 168° South  Level FlightAware Approximate
08:22PM 22.4189 -78.8927 168° South  Level FlightAware Approximate
08:23PM 22.3374 -78.8746 168° South  Level FlightAware Approximate
08:24PM 22.2559 -78.8566 168° South  Level FlightAware Approximate
08:25PM 22.1744 -78.8385 168° South  Level FlightAware Approximate
08:26PM 22.0929 -78.8205 168° South  Level FlightAware Approximate
08:27PM 22.0114 -78.8025 168° South  Level FlightAware Approximate
08:28PM 21.9286 -78.8057 184° South  Level FlightAware Approximate
08:29PM 21.8456 -78.8124 184° South  Level FlightAware Approximate
08:30PM 21.7627 -78.8190 184° South  Level FlightAware Approximate
08:31PM 21.6797 -78.8256 184° South  Level FlightAware Approximate
08:32PM 21.5968 -78.8323 184° South  Level FlightAware Approximate
08:33PM 21.5137 -78.8378 183° South  Level FlightAware Approximate
08:34PM 21.4307 -78.8432 183° South  Level FlightAware Approximate
08:35PM 21.3477 -78.8485 183° South  Level FlightAware Approximate
08:36PM 21.2647 -78.8539 183° South  Level FlightAware Approximate
08:37PM 21.1816 -78.8592 183° South  Level FlightAware Approximate
08:38PM 21.0986 -78.8646 183° South  Level FlightAware Approximate
08:39PM 21.0156 -78.8699 183° South  Level FlightAware Approximate
08:40PM 20.9325 -78.8752 183° South  Level FlightAware Approximate
08:41PM 20.8495 -78.8805 183° South  Level FlightAware Approximate
08:42PM 20.7665 -78.8859 183° South  Level FlightAware Approximate
08:43PM 20.6834 -78.8912 183° South  Level FlightAware Approximate
08:44PM 20.6004 -78.8965 183° South  Level FlightAware Approximate
08:45PM 20.5174 -78.9018 183° South  Level FlightAware Approximate
08:46PM 20.4343 -78.9071 183° South  Level FlightAware Approximate
08:47PM 20.3513 -78.9123 183° South  Level FlightAware Approximate
08:48PM 20.2682 -78.9167 180° South  Level FlightAware Approximate
08:49PM 20.1851 -78.9167 180° South  Level FlightAware Approximate
08:50PM 20.1019 -78.9167 180° South  Level FlightAware Approximate
08:51PM 20.0201 -78.9266 197° South  Level FlightAware Approximate
08:52PM 19.9508 -78.8934 146° Southeast  Level FlightAware Approximate
08:53PM 19.8818 -78.8440 146° Southeast  Level FlightAware Approximate
08:54PM 19.8127 -78.7947 146° Southeast  Level FlightAware Approximate
08:55PM 19.7435 -78.7458 149° Southeast  Level FlightAware Approximate
08:56PM 19.6723 -78.7000 149° Southeast  Level FlightAware Approximate
08:57PM 19.6012 -78.6543 149° Southeast  Level FlightAware Approximate
08:58PM 19.5300 -78.6086 149° Southeast  Level FlightAware Approximate
08:59PM 19.4595 -78.5618 148° Southeast  Level FlightAware Approximate
09:00PM 19.3891 -78.5148 148° Southeast  Level FlightAware Approximate
09:01PM 19.3187 -78.4678 148° Southeast  Level FlightAware Approximate
09:02PM 19.2482 -78.4210 148° Southeast  Level FlightAware Approximate
09:03PM 19.1778 -78.3741 148° Southeast  Level FlightAware Approximate
09:04PM 19.1096 -78.3238 145° Southeast  Level FlightAware Approximate
09:05PM 19.0417 -78.2729 145° Southeast  Level FlightAware Approximate
09:06PM 18.9708 -78.2269 149° Southeast  Level FlightAware Approximate
09:07PM 18.8996 -78.1815 149° Southeast  Level FlightAware Approximate
09:08PM 18.8286 -78.1357 148° Southeast  Level FlightAware Approximate
09:09PM 18.7582 -78.0888 148° Southeast  Level FlightAware Approximate
09:10PM 18.6857 -78.0500 180° South  Level FlightAware Approximate
09:11PM 18.6236 -77.9927 145° Southeast  Level FlightAware Approximate
09:12PM 18.5558 -77.9418 145° Southeast  Level FlightAware Approximate
09:13PM 18.5037 -77.9134 145° Southeast  Level Estimated
09:14PM 18.5037 -77.9134 145° Southeast  Level Estimated
09:15PM 18.5037 -77.9134 145° Southeast  Level Estimated
09:16PM 18.5037 -77.9134 145° Southeast  Level Estimated
09:17PM 18.5037 -77.9134 145° Southeast  Level Estimated
09:18PM 18.5037 -77.9134 145° Southeast  Level Estimated
09:19PM 18.5037 -77.9134 145° Southeast  Level Estimated
09:20PM 18.5037 -77.9134 145° Southeast  Level Estimated
09:21PM 18.5037 -77.9134 145° Southeast  Level Estimated
09:22PM 18.5037 -77.9134 145° Southeast  Level Estimated
09:23PM 18.5037 -77.9134 145° Southeast  Level Estimated